createdAt,value
2022-11-04T05:00:28.834Z,12.60
2022-11-04T05:11:33.675Z,2.20
2022-11-04T05:22:33.558Z,2.50
2022-11-04T05:33:33.427Z,1.20
2022-11-04T05:44:33.319Z,5.60
2022-11-04T05:55:33.180Z,2.60
2022-11-04T06:06:33.061Z,2.00
2022-11-04T06:17:32.928Z,2.30
2022-11-04T06:28:32.793Z,4.00
2022-11-04T06:39:32.693Z,3.80
2022-11-04T06:50:32.561Z,2.60
2022-11-04T07:01:32.574Z,3.80
2022-11-04T07:12:32.324Z,1.60
2022-11-04T07:23:32.191Z,5.80
2022-11-04T07:34:32.073Z,1.20
2022-11-04T07:45:31.936Z,2.40
2022-11-04T07:56:31.797Z,4.60
2022-11-04T08:07:31.663Z,1.50
2022-11-04T08:18:31.540Z,3.50
2022-11-04T08:29:31.412Z,5.90
2022-11-04T08:40:31.300Z,2.30
2022-11-04T08:51:31.163Z,2.10
2022-11-04T09:02:32.040Z,1.40
2022-11-04T09:13:34.304Z,1.50
2022-11-04T09:24:30.790Z,3.70
2022-11-04T09:35:30.663Z,1.10
2022-11-04T09:46:30.715Z,1.20
2022-11-04T09:57:30.435Z,2.80
2022-11-04T10:08:35.145Z,1.40
2022-11-04T10:19:30.175Z,1.30
2022-11-04T10:30:30.056Z,5.90
2022-11-04T10:41:29.925Z,5.30
2022-11-04T10:52:29.789Z,8.90
2022-11-04T11:03:29.665Z,1.80
2022-11-04T11:14:29.870Z,6.40
2022-11-04T11:25:29.414Z,3.30
2022-11-04T11:36:29.303Z,2.30
2022-11-04T11:47:29.259Z,6.90
2022-11-04T12:09:33.989Z,1.70
2022-11-04T12:20:28.791Z,5.20
2022-11-04T12:31:29.662Z,3.90
2022-11-04T12:42:32.740Z,4.40
2022-11-04T12:53:28.419Z,4.10
2022-11-04T13:04:28.288Z,2.40
2022-11-04T13:15:28.210Z,3.10
2022-11-04T13:26:28.051Z,2.30
2022-11-04T13:37:27.921Z,4.50
2022-11-04T13:48:27.820Z,2.40
2022-11-04T13:59:27.771Z,3.00
2022-11-04T14:10:27.547Z,3.70
2022-11-04T14:21:27.444Z,1.20
2022-11-04T14:32:27.300Z,1.20
2022-11-04T14:43:27.183Z,1.20
2022-11-04T14:54:27.062Z,6.40
2022-11-04T15:05:26.981Z,4.40
2022-11-04T15:16:26.805Z,4.90
2022-11-04T15:27:27.677Z,3.30
2022-11-04T15:38:26.554Z,3.10
2022-11-04T15:49:26.448Z,2.10
2022-11-04T16:00:26.314Z,5.90
2022-11-04T16:11:26.318Z,3.40
2022-11-04T16:22:26.054Z,5.90
2022-11-04T16:33:25.929Z,6.80
2022-11-04T16:44:25.806Z,3.30
2022-11-04T16:55:25.698Z,5.40
2022-11-04T17:06:25.569Z,7.80
2022-11-04T17:17:25.483Z,3.00
2022-11-04T17:28:25.314Z,7.50
2022-11-04T17:39:25.178Z,5.50
2022-11-04T17:50:25.054Z,7.40
2022-11-04T18:01:25.028Z,6.50
2022-11-04T18:12:24.826Z,6.40
2022-11-04T18:23:24.677Z,8.40
2022-11-04T18:34:24.634Z,7.10
2022-11-04T18:45:24.422Z,6.10
2022-11-04T18:56:24.386Z,7.70
2022-11-04T19:07:24.188Z,9.10
2022-11-04T19:18:24.050Z,10.50
2022-11-04T19:29:24.985Z,6.80
2022-11-04T19:40:23.848Z,8.20
2022-11-04T19:51:26.603Z,9.00
2022-11-04T20:02:23.766Z,10.00
2022-11-04T20:13:23.420Z,8.80
2022-11-04T20:24:23.293Z,13.40
2022-11-04T20:35:23.168Z,9.50
2022-11-04T20:46:23.041Z,8.30
2022-11-04T20:57:22.936Z,8.90
2022-11-04T21:08:22.799Z,10.40
2022-11-04T21:19:22.720Z,11.10
2022-11-04T21:30:22.546Z,13.80
2022-11-04T21:41:22.413Z,10.70
2022-11-04T21:52:22.289Z,12.30
